createdAt,value
2022-09-02T00:01:59.715Z,100291.63
2022-09-02T00:04:26.624Z,100287.88
2022-09-02T00:06:54.396Z,100287.00
2022-09-02T00:09:23.037Z,100288.19
2022-09-02T00:11:51.401Z,100279.53
2022-09-02T00:14:25.364Z,100277.09
2022-09-02T00:16:52.688Z,100285.13
2022-09-02T00:19:21.489Z,100278.84
2022-09-02T00:21:50.462Z,100277.97
2022-09-02T00:24:17.672Z,100277.19
2022-09-02T00:26:44.586Z,100275.38
2022-09-02T00:29:13.097Z,100273.66
2022-09-02T00:31:39.505Z,100272.91
2022-09-02T00:34:06.051Z,100279.13
2022-09-02T00:36:33.561Z,100271.91
2022-09-02T00:39:00.070Z,100274.19
2022-09-02T00:41:29.089Z,100271.00
2022-09-02T00:44:06.190Z,100276.13
2022-09-02T00:46:33.660Z,100273.13
2022-09-02T00:49:24.858Z,100273.22
2022-09-02T00:51:55.304Z,100262.66
2022-09-02T00:54:24.031Z,100268.16
2022-09-02T00:56:53.808Z,100274.72
2022-09-02T01:00:06.028Z,100265.53
2022-09-02T01:02:33.025Z,100261.69
2022-09-02T01:05:01.065Z,100266.00
2022-09-02T01:07:33.923Z,100257.41
2022-09-02T01:10:02.494Z,100262.56
2022-09-02T01:12:31.572Z,100259.06
2022-09-02T01:14:58.702Z,100264.75
2022-09-02T01:17:26.259Z,100262.59
2022-09-02T01:20:01.690Z,100263.09
2022-09-02T01:22:32.536Z,100259.44
2022-09-02T01:25:06.086Z,100263.00
2022-09-02T01:27:32.621Z,100265.00
2022-09-02T01:30:00.517Z,100262.84
2022-09-02T01:32:29.075Z,100261.31
2022-09-02T01:34:55.712Z,100265.69
2022-09-02T01:37:23.024Z,100265.47
2022-09-02T01:39:50.624Z,100259.00
2022-09-02T01:42:17.044Z,100261.41
2022-09-02T01:44:46.289Z,100259.34
2022-09-02T01:47:15.409Z,100260.19
2022-09-02T01:49:41.917Z,100261.16
2022-09-02T01:52:09.379Z,100261.91
2022-09-02T01:54:36.224Z,100251.66
2022-09-02T01:57:03.553Z,100266.59
2022-09-02T01:59:30.381Z,100259.91
2022-09-02T02:01:56.894Z,100262.84
2022-09-02T02:04:24.768Z,100266.69
2022-09-02T02:06:52.470Z,100276.38
2022-09-02T02:09:20.075Z,100272.66
2022-09-02T02:11:47.222Z,100267.25
2022-09-02T02:14:13.839Z,100263.06
2022-09-02T02:16:40.586Z,100263.47
2022-09-02T02:19:07.069Z,100273.25
2022-09-02T02:21:33.559Z,100268.91
2022-09-02T02:24:01.213Z,100272.00
2022-09-02T02:26:29.051Z,100267.72
2022-09-02T02:28:55.705Z,100265.47
2022-09-02T02:31:22.356Z,100257.47
2022-09-02T02:33:48.779Z,100258.97
2022-09-02T02:36:15.953Z,100260.47
2022-09-02T02:38:44.123Z,100267.97
2022-09-02T02:41:10.770Z,100264.03
2022-09-02T02:43:37.310Z,100260.31
2022-09-02T02:46:04.345Z,100266.72
2022-09-02T02:48:30.952Z,100265.78
2022-09-02T02:50:57.404Z,100268.25
2022-09-02T02:53:23.935Z,100258.28
2022-09-02T02:55:51.492Z,100267.06
2022-09-02T02:58:18.328Z,100265.06
2022-09-02T03:00:45.464Z,100261.25
2022-09-02T03:03:12.509Z,100262.41
2022-09-02T03:05:39.937Z,100259.88
2022-09-02T03:08:08.663Z,100262.97
2022-09-02T03:10:37.813Z,100264.31
2022-09-02T03:13:04.606Z,100255.75
2022-09-02T03:15:31.041Z,100264.28
2022-09-02T03:17:57.843Z,100263.78
2022-09-02T03:20:25.445Z,100271.38
2022-09-02T03:22:54.949Z,100257.28
2022-09-02T03:25:22.318Z,100256.09
2022-09-02T03:27:49.522Z,100265.78
2022-09-02T03:30:21.581Z,100261.00
2022-09-02T03:32:48.842Z,100266.72
2022-09-02T03:35:19.080Z,100258.50
2022-09-02T03:37:46.155Z,100258.56
2022-09-02T03:40:18.912Z,100258.63
2022-09-02T03:42:47.217Z,100260.91
2022-09-02T03:45:15.404Z,100257.81
2022-09-02T03:47:50.884Z,100258.22
2022-09-02T03:50:20.132Z,100252.03
2022-09-02T03:52:46.722Z,100259.63
2022-09-02T03:55:13.206Z,100263.16
2022-09-02T03:57:39.631Z,100260.03
2022-09-02T04:00:13.361Z,100260.69
2022-09-02T04:02:40.226Z,100269.78
2022-09-02T04:05:10.338Z,100268.41
2022-09-02T04:07:40.704Z,100269.19
2022-09-02T04:10:09.574Z,100263.88
2022-09-02T04:12:37.285Z,100260.78
2022-09-02T04:15:05.445Z,100259.31
2022-09-02T04:17:31.927Z,100257.66
2022-09-02T04:19:58.353Z,100266.53
2022-09-02T04:22:24.759Z,100261.19
2022-09-02T04:24:51.176Z,100267.50
2022-09-02T04:27:17.819Z,100261.13
2022-09-02T04:29:44.217Z,100255.78
2022-09-02T04:32:11.161Z,100266.75
2022-09-02T04:34:37.645Z,100261.50
2022-09-02T04:37:04.234Z,100264.53
2022-09-02T04:39:30.703Z,100260.19
2022-09-02T04:41:57.122Z,100262.06
2022-09-02T04:44:23.634Z,100269.84
2022-09-02T04:46:50.298Z,100262.00
2022-09-02T04:49:17.543Z,100263.94
2022-09-02T04:51:44.131Z,100264.84
2022-09-02T04:54:10.646Z,100272.19
2022-09-02T04:56:38.385Z,100264.13
2022-09-02T04:59:05.062Z,100277.41
2022-09-02T05:01:34.502Z,100275.22
2022-09-02T05:04:04.071Z,100279.31
2022-09-02T05:06:30.913Z,100277.22
2022-09-02T05:08:59.187Z,100273.41
2022-09-02T05:11:28.425Z,100280.19
2022-09-02T05:13:58.032Z,100275.22
2022-09-02T05:16:27.667Z,100271.00
2022-09-02T05:18:54.773Z,100272.09
2022-09-02T05:21:23.246Z,100270.22
2022-09-02T05:23:51.093Z,100266.56
2022-09-02T05:26:21.024Z,100273.00
2022-09-02T05:28:47.418Z,100273.19
2022-09-02T05:31:20.233Z,100278.69
2022-09-02T05:33:47.600Z,100271.47
2022-09-02T05:36:18.040Z,100269.28
2022-09-02T05:38:45.571Z,100272.06
2022-09-02T05:41:15.944Z,100274.44
2022-09-02T05:43:47.718Z,100278.16
2022-09-02T05:46:21.172Z,100276.00
2022-09-02T05:49:07.283Z,100275.94
2022-09-02T05:51:37.356Z,100276.41
2022-09-02T05:54:03.828Z,100277.13
2022-09-02T05:56:30.288Z,100271.06
2022-09-02T05:58:58.736Z,100269.94
2022-09-02T06:01:27.325Z,100279.56
2022-09-02T06:03:53.786Z,100275.06
2022-09-02T06:06:22.881Z,100269.22
2022-09-02T06:08:50.198Z,100276.88
2022-09-02T06:11:17.977Z,100273.75
2022-09-02T06:13:44.808Z,100279.56
2022-09-02T06:16:15.957Z,100273.34
2022-09-02T06:18:43.450Z,100265.22
2022-09-02T06:21:10.193Z,100272.09
2022-09-02T06:23:39.204Z,100274.38
2022-09-02T06:26:07.283Z,100268.84
2022-09-02T06:28:34.165Z,100274.13
2022-09-02T06:31:07.017Z,100271.94
2022-09-02T06:33:33.531Z,100264.69
2022-09-02T06:35:59.948Z,100269.81
2022-09-02T06:38:26.697Z,100268.06
2022-09-02T06:40:55.738Z,100265.38
2022-09-02T06:43:22.361Z,100266.47
2022-09-02T06:45:48.940Z,100264.19
2022-09-02T06:48:15.450Z,100263.31
2022-09-02T06:50:44.766Z,100258.22
2022-09-02T06:53:12.267Z,100260.06
2022-09-02T06:55:41.242Z,100254.81
2022-09-02T06:58:08.091Z,100254.31
2022-09-02T07:00:35.898Z,100253.09
2022-09-02T07:03:22.331Z,100244.25
2022-09-02T07:06:03.151Z,100252.91
2022-09-02T07:08:30.183Z,100248.06
2022-09-02T07:10:56.655Z,100248.50
2022-09-02T07:13:23.216Z,100247.34
2022-09-02T07:15:49.733Z,100249.28
2022-09-02T07:18:16.160Z,100254.34
2022-09-02T07:20:46.262Z,100254.66
2022-09-02T07:23:12.665Z,100243.94
2022-09-02T07:25:41.184Z,100247.03
2022-09-02T07:28:09.182Z,100242.38
2022-09-02T07:30:36.081Z,100230.28
2022-09-02T07:33:02.654Z,100237.22
2022-09-02T07:35:29.683Z,100235.75
2022-09-02T07:37:56.090Z,100237.34
2022-09-02T07:40:23.548Z,100237.28
2022-09-02T07:42:50.699Z,100239.22
2022-09-02T07:45:17.401Z,100236.72
2022-09-02T07:47:43.945Z,100241.66
2022-09-02T07:50:20.761Z,100246.50
2022-09-02T07:52:50.452Z,100237.19
2022-09-02T07:55:16.918Z,100245.22
2022-09-02T07:57:43.334Z,100239.06
2022-09-02T08:00:12.150Z,100235.44
2022-09-02T08:02:38.654Z,100225.84
2022-09-02T08:05:05.722Z,100238.63
2022-09-02T08:07:32.165Z,100229.50
2022-09-02T08:10:00.913Z,100238.50
2022-09-02T08:12:28.308Z,100236.81
2022-09-02T08:14:55.984Z,100231.44
2022-09-02T08:17:22.508Z,100228.25
2022-09-02T08:19:49.076Z,100230.53
2022-09-02T08:22:15.496Z,100228.59
2022-09-02T08:24:41.900Z,100224.22
2022-09-02T08:27:08.436Z,100231.53
2022-09-02T08:29:35.160Z,100228.97
2022-09-02T08:32:02.014Z,100225.47
2022-09-02T08:34:29.710Z,100233.66
2022-09-02T08:36:57.334Z,100230.50
2022-09-02T08:39:24.584Z,100227.66
2022-09-02T08:41:57.116Z,100235.91
2022-09-02T08:44:24.408Z,100229.47
2022-09-02T08:46:56.374Z,100228.44
2022-09-02T08:49:29.754Z,100230.59
2022-09-02T08:52:01.002Z,100228.97
2022-09-02T08:54:48.544Z,100230.06
2022-09-02T08:57:14.940Z,100226.69
2022-09-02T08:59:43.695Z,100223.72
2022-09-02T09:02:17.866Z,100215.13
2022-09-02T09:05:10.370Z,100214.78
2022-09-02T09:07:59.819Z,100215.78
2022-09-02T09:10:42.797Z,100220.47
2022-09-02T09:13:53.672Z,100212.72
2022-09-02T09:16:32.444Z,100205.91
2022-09-02T09:19:25.787Z,100195.72
2022-09-02T09:21:56.187Z,100200.34
2022-09-02T09:24:31.925Z,100195.78
2022-09-02T09:26:59.812Z,100191.25
2022-09-02T09:29:26.820Z,100197.88
2022-09-02T09:32:00.124Z,100200.56
2022-09-02T09:34:52.445Z,100195.16
2022-09-02T09:37:35.701Z,100202.47
2022-09-02T09:40:25.960Z,100205.91
2022-09-02T09:43:16.026Z,100193.84
2022-09-02T09:45:46.635Z,100198.75
2022-09-02T09:48:33.377Z,100182.47
2022-09-02T09:50:59.707Z,100187.19
2022-09-02T09:53:26.043Z,100177.75
2022-09-02T09:56:01.866Z,100185.63
2022-09-02T09:58:38.824Z,100190.53
2022-09-02T10:01:21.980Z,100178.47
2022-09-02T10:03:55.610Z,100170.50
2022-09-02T10:06:29.435Z,100168.25
2022-09-02T10:09:01.583Z,100171.41
2022-09-02T10:11:37.915Z,100167.25
2022-09-02T10:14:08.336Z,100160.63
2022-09-02T10:16:56.347Z,100162.88
2022-09-02T10:19:41.465Z,100158.88
2022-09-02T10:22:39.189Z,100166.25
2022-09-02T10:25:21.763Z,100154.41
2022-09-02T10:27:56.597Z,100153.91
2022-09-02T10:30:24.901Z,100153.47
2022-09-02T10:33:09.547Z,100144.22
2022-09-02T10:36:06.423Z,100131.78
2022-09-02T10:38:32.837Z,100143.03
2022-09-02T10:41:23.376Z,100137.44
2022-09-02T10:44:23.375Z,100139.09
2022-09-02T10:47:01.727Z,100131.06
2022-09-02T10:49:38.050Z,100116.03
2022-09-02T10:52:25.843Z,100115.59
2022-09-02T10:55:04.532Z,100111.00
2022-09-02T10:58:01.003Z,100108.28
2022-09-02T11:00:30.220Z,100103.41
2022-09-02T11:03:30.904Z,100097.53
2022-09-02T11:06:07.033Z,100092.69
2022-09-02T11:08:55.001Z,100105.13
2022-09-02T11:12:00.120Z,100091.25
2022-09-02T11:14:39.412Z,100083.06
2022-09-02T11:17:21.431Z,100075.75
2022-09-02T11:20:09.617Z,100080.94
2022-09-02T11:22:57.782Z,100065.16
2022-09-02T11:25:41.523Z,100053.66
2022-09-02T11:28:45.560Z,100055.88
2022-09-02T11:31:39.696Z,100055.69
2022-09-02T11:34:24.386Z,100069.47
2022-09-02T11:36:51.545Z,100058.88
2022-09-02T11:39:25.827Z,100055.13
2022-09-02T11:42:18.172Z,100057.25
2022-09-02T11:44:53.828Z,100053.22
2022-09-02T11:47:30.206Z,100053.69
2022-09-02T11:50:35.829Z,100040.81
2022-09-02T11:53:29.171Z,100043.34
2022-09-02T11:56:03.361Z,100058.09
2022-09-02T11:58:38.836Z,100054.72
2022-09-02T12:01:43.975Z,100041.34
2022-09-02T12:04:56.235Z,100033.81
2022-09-02T12:07:08.579Z,100035.44
2022-09-02T12:12:37.066Z,100027.59
2022-09-02T12:15:04.847Z,100037.53
2022-09-02T12:17:37.815Z,100047.41
2022-09-02T12:20:10.508Z,100039.78
2022-09-02T12:22:41.934Z,100026.75
2022-09-02T12:25:28.186Z,100017.38
2022-09-02T12:28:25.338Z,100018.84
2022-09-02T12:30:55.431Z,100029.63
2022-09-02T12:33:35.066Z,100023.34
2022-09-02T12:36:05.053Z,100021.91
2022-09-02T12:38:41.192Z,100026.72
2022-09-02T12:41:22.042Z,100010.19
2022-09-02T12:44:02.238Z,100011.84
2022-09-02T12:46:43.591Z,100003.22
2022-09-02T12:49:41.241Z,100010.25
2022-09-02T12:52:36.188Z,100007.25
2022-09-02T12:55:18.189Z,100006.47
2022-09-02T12:57:47.691Z,99992.50
2022-09-02T13:00:46.150Z,99989.22
2022-09-02T13:03:32.322Z,99987.72
2022-09-02T13:06:24.113Z,99990.69
2022-09-02T13:09:27.988Z,99992.59
2022-09-02T13:12:19.107Z,99978.53
2022-09-02T13:15:23.405Z,99975.91
2022-09-02T13:18:11.382Z,99982.25
2022-09-02T13:21:09.657Z,99968.00
2022-09-02T13:23:45.081Z,99967.72
2022-09-02T13:26:49.245Z,99956.44
2022-09-02T13:29:36.105Z,99946.66
2022-09-02T13:32:23.836Z,99950.97
2022-09-02T13:34:55.030Z,99951.31
2022-09-02T13:37:45.168Z,99948.50
2022-09-02T13:40:19.575Z,99944.66
2022-09-02T13:42:54.889Z,99942.91
2022-09-02T13:45:26.332Z,99932.19
2022-09-02T13:47:55.432Z,99933.88
2022-09-02T13:50:24.725Z,99931.84
2022-09-02T13:54:05.134Z,99932.41
2022-09-02T13:55:49.112Z,99924.25
2022-09-02T13:58:30.928Z,99924.38
2022-09-02T14:01:02.381Z,99922.94
2022-09-02T14:03:32.665Z,99920.19
2022-09-02T14:06:00.104Z,99922.50
2022-09-02T14:08:29.098Z,99921.25
2022-09-02T14:10:56.710Z,99914.53
2022-09-02T14:13:23.503Z,99912.09
2022-09-02T14:15:50.137Z,99892.72
2022-09-02T14:18:22.687Z,99897.44
2022-09-02T14:21:00.144Z,99884.88
2022-09-02T14:23:29.542Z,99889.53
2022-09-02T14:25:59.007Z,99883.56
2022-09-02T14:28:29.159Z,99877.75
2022-09-02T14:31:04.883Z,99887.22
2022-09-02T14:33:43.366Z,99879.00
2022-09-02T14:36:12.848Z,99877.38
2022-09-02T14:38:45.285Z,99867.81
2022-09-02T14:41:36.039Z,99866.94
2022-09-02T14:44:23.901Z,99859.94
2022-09-02T14:46:54.519Z,99867.31
2022-09-02T14:49:26.760Z,99856.75
2022-09-02T14:51:58.851Z,99851.66
2022-09-02T14:54:40.742Z,99846.25
2022-09-02T14:57:28.436Z,99854.56
2022-09-02T14:59:58.193Z,99845.72
2022-09-02T15:02:27.565Z,99844.94
2022-09-02T15:04:55.400Z,99848.41
2022-09-02T15:07:22.746Z,99840.69
2022-09-02T15:09:51.314Z,99847.38
2022-09-02T15:12:20.617Z,99844.84
2022-09-02T15:14:47.161Z,99838.78
2022-09-02T15:17:15.658Z,99840.19
2022-09-02T15:19:42.090Z,99831.56
2022-09-02T15:22:08.607Z,99833.44
2022-09-02T15:24:35.119Z,99834.50
2022-09-02T15:27:01.788Z,99832.41
2022-09-02T15:29:29.073Z,99833.19
2022-09-02T15:31:55.950Z,99839.63
2022-09-02T15:34:26.355Z,99836.59
2022-09-02T15:36:55.216Z,99835.91
2022-09-02T15:39:22.848Z,99841.41
2022-09-02T15:41:50.085Z,99832.88
2022-09-02T15:44:17.938Z,99839.25
2022-09-02T15:46:45.665Z,99835.97
2022-09-02T15:49:15.610Z,99824.41
2022-09-02T15:51:47.147Z,99819.88
2022-09-02T15:54:16.412Z,99819.03
2022-09-02T15:56:45.797Z,99811.50
2022-09-02T15:59:14.641Z,99811.88
2022-09-02T16:01:43.714Z,99811.44
2022-09-02T16:04:12.070Z,99813.56
2022-09-02T16:06:40.723Z,99816.91
2022-09-02T16:09:10.001Z,99817.50
2022-09-02T16:11:41.328Z,99811.06
2022-09-02T16:14:08.141Z,99813.94
2022-09-02T16:16:37.967Z,99821.69
2022-09-02T16:19:06.012Z,99812.19
2022-09-02T16:21:33.046Z,99819.41
2022-09-02T16:23:59.509Z,99812.69
2022-09-02T16:26:34.350Z,99809.50
2022-09-02T16:29:09.542Z,99809.34
2022-09-02T16:31:38.656Z,99810.72
2022-09-02T16:34:10.415Z,99817.69
2022-09-02T16:36:40.143Z,99807.88
2022-09-02T16:39:07.709Z,99813.38
2022-09-02T16:41:37.285Z,99799.63
2022-09-02T16:44:07.036Z,99810.16
2022-09-02T16:46:35.039Z,99809.25
2022-09-02T16:49:01.518Z,99794.53
2022-09-02T16:51:30.023Z,99806.38
2022-09-02T16:53:59.571Z,99804.25
2022-09-02T16:56:26.639Z,99801.69
2022-09-02T16:58:53.976Z,99799.69
2022-09-02T17:01:22.232Z,99793.44
2022-09-02T17:03:50.591Z,99799.31
2022-09-02T17:06:17.355Z,99799.56
2022-09-02T17:08:43.949Z,99797.75
2022-09-02T17:11:16.215Z,99800.03
2022-09-02T17:13:42.680Z,99802.50
2022-09-02T17:16:09.294Z,99803.66
2022-09-02T17:18:36.052Z,99783.78
2022-09-02T17:21:22.963Z,99791.22
2022-09-02T17:23:50.103Z,99793.50
2022-09-02T17:26:17.730Z,99795.41
2022-09-02T17:28:47.447Z,99794.66
2022-09-02T17:31:22.541Z,99793.81
2022-09-02T17:33:50.418Z,99784.09
2022-09-02T17:36:17.271Z,99786.56
2022-09-02T17:38:44.395Z,99787.81
2022-09-02T17:41:29.297Z,99787.41
2022-09-02T17:43:55.838Z,99784.94
2022-09-02T17:46:22.511Z,99793.53
2022-09-02T17:49:15.349Z,99786.63
2022-09-02T17:51:35.664Z,99782.75
2022-09-02T17:54:02.112Z,99786.19
2022-09-02T17:57:01.170Z,99780.53
2022-09-02T17:59:49.434Z,99783.22
2022-09-02T18:02:42.245Z,99778.34
2022-09-02T18:05:18.390Z,99759.72
2022-09-02T18:08:01.461Z,99779.25
2022-09-02T18:10:33.335Z,99777.69
2022-09-02T18:13:06.199Z,99787.09
2022-09-02T18:15:41.951Z,99790.75
2022-09-02T18:18:11.801Z,99790.31
2022-09-02T18:20:43.803Z,99795.53
2022-09-02T18:23:41.566Z,99797.63
2022-09-02T18:26:57.250Z,99792.03
2022-09-02T18:29:48.755Z,99772.19
2022-09-02T18:32:58.778Z,99789.25
2022-09-02T18:35:52.441Z,99789.47
2022-09-02T18:38:28.416Z,99791.03
2022-09-02T18:41:15.147Z,99797.91
2022-09-02T18:44:02.140Z,99797.72
2022-09-02T18:46:36.268Z,99792.91
2022-09-02T18:49:04.364Z,99798.84
2022-09-02T18:51:40.906Z,99791.25
2022-09-02T18:54:13.551Z,99796.06
2022-09-02T18:56:49.140Z,99788.69
2022-09-02T18:59:22.623Z,99794.13
2022-09-02T19:01:57.119Z,99792.91
2022-09-02T19:04:29.533Z,99792.78
2022-09-02T19:07:16.639Z,99797.47
2022-09-02T19:09:43.452Z,99805.72
2022-09-02T19:12:10.810Z,99804.25
2022-09-02T19:14:40.195Z,99806.19
2022-09-02T19:17:09.017Z,99800.94
2022-09-02T19:19:35.556Z,99801.19
2022-09-02T19:22:10.877Z,99795.75
2022-09-02T19:24:49.401Z,99799.97
2022-09-02T19:27:19.380Z,99811.28
2022-09-02T19:29:51.306Z,99801.72
2022-09-02T19:32:24.620Z,99799.38
2022-09-02T19:34:51.169Z,99803.94
2022-09-02T19:37:17.694Z,99800.00
2022-09-02T19:39:44.223Z,99812.19
2022-09-02T19:42:10.921Z,99811.63
2022-09-02T19:44:37.882Z,99816.56
2022-09-02T19:49:51.975Z,99811.66
2022-09-02T19:52:21.640Z,99803.53
2022-09-02T19:54:48.131Z,99813.84
2022-09-02T19:57:14.635Z,99810.78
2022-09-02T19:59:41.079Z,99807.34
2022-09-02T20:02:07.630Z,99805.72
2022-09-02T20:04:34.560Z,99812.84
2022-09-02T20:07:01.987Z,99808.28
2022-09-02T20:09:29.433Z,99808.69
2022-09-02T20:11:56.536Z,99814.31
2022-09-02T20:14:23.341Z,99816.97
2022-09-02T20:16:57.113Z,99811.94
2022-09-02T20:19:23.771Z,99808.59
2022-09-02T20:21:53.171Z,99822.34
2022-09-02T20:24:29.805Z,99824.63
2022-09-02T20:27:25.438Z,99814.41
2022-09-02T20:30:10.817Z,99825.34
2022-09-02T20:33:00.718Z,99824.81
2022-09-02T20:35:35.179Z,99819.03
2022-09-02T20:38:12.863Z,99819.03
2022-09-02T20:40:48.497Z,99824.44
2022-09-02T20:43:24.534Z,99825.28
2022-09-02T20:46:18.139Z,99819.78
2022-09-02T20:48:56.786Z,99821.25
2022-09-02T20:51:30.212Z,99819.25
2022-09-02T20:54:22.985Z,99819.84
2022-09-02T20:56:58.503Z,99820.19
2022-09-02T20:59:38.345Z,99829.66
2022-09-02T21:02:07.989Z,99823.03
2022-09-02T21:04:39.222Z,99816.41
2022-09-02T21:07:16.502Z,99814.19
2022-09-02T21:10:09.205Z,99817.56
2022-09-02T21:12:43.433Z,99811.13
2022-09-02T21:15:31.926Z,99809.72
2022-09-02T21:18:10.574Z,99807.63
2022-09-02T21:20:49.786Z,99811.84
2022-09-02T21:23:32.028Z,99804.25
2022-09-02T21:26:07.273Z,99804.38
2022-09-02T21:28:42.431Z,99807.31
2022-09-02T21:31:25.225Z,99802.53
2022-09-02T21:33:55.164Z,99810.53
2022-09-02T21:36:27.158Z,99807.78
2022-09-02T21:38:58.252Z,99805.75
2022-09-02T21:41:37.107Z,99808.97
2022-09-02T21:44:34.728Z,99816.78
2022-09-02T21:47:19.345Z,99809.19
2022-09-02T21:49:49.391Z,99818.69
2022-09-02T21:52:26.660Z,99815.91
2022-09-02T21:55:00.031Z,99809.13
2022-09-02T21:58:05.325Z,99808.47
2022-09-02T22:00:33.309Z,99803.53
2022-09-02T22:03:39.957Z,99801.69
2022-09-02T22:06:16.811Z,99797.59
2022-09-02T22:09:08.912Z,99798.22
2022-09-02T22:12:14.633Z,99797.59
2022-09-02T22:14:53.818Z,99795.72
2022-09-02T22:17:30.361Z,99799.19
2022-09-02T22:19:59.248Z,99793.38
2022-09-02T22:22:38.826Z,99792.63
2022-09-02T22:25:06.576Z,99787.66
2022-09-02T22:27:43.527Z,99790.59
2022-09-02T22:30:10.839Z,99793.81
2022-09-02T22:32:45.852Z,99797.81
2022-09-02T22:35:34.140Z,99793.81
2022-09-02T22:38:03.591Z,99785.59
2022-09-02T22:40:39.550Z,99797.94
2022-09-02T22:43:12.436Z,99793.38
2022-09-02T22:46:21.252Z,99791.47
2022-09-02T22:49:13.138Z,99802.88
2022-09-02T22:52:06.122Z,99800.88
2022-09-02T22:54:32.514Z,99797.78
2022-09-02T22:57:18.387Z,99792.09
2022-09-02T23:00:02.548Z,99804.44
2022-09-02T23:02:37.338Z,99805.31
2022-09-02T23:05:37.669Z,99804.13
2022-09-02T23:08:08.100Z,99810.09
2022-09-02T23:10:40.464Z,99807.41
2022-09-02T23:13:37.976Z,99810.09
2022-09-02T23:16:20.637Z,99807.41
2022-09-02T23:18:58.852Z,99803.84
2022-09-02T23:21:37.813Z,99807.28
2022-09-02T23:24:14.371Z,99808.38
2022-09-02T23:26:58.016Z,99805.44
2022-09-02T23:29:28.611Z,99810.09
2022-09-02T23:32:10.744Z,99806.19
2022-09-02T23:34:53.862Z,99810.50
2022-09-02T23:37:32.352Z,99803.28
2022-09-02T23:40:22.451Z,99807.81
2022-09-02T23:42:49.836Z,99806.75
2022-09-02T23:45:21.746Z,99797.97
2022-09-02T23:48:04.278Z,99789.88
2022-09-02T23:50:46.208Z,99787.41
2022-09-02T23:53:33.348Z,99785.34
2022-09-02T23:56:16.228Z,99783.75
2022-09-02T23:58:57.609Z,99779.91
